Aérodrome :
LOGIN :

S'inscrire | Disclaimer

   EN    FR    IT 

 










Légende :    VFR   VFR Marginal   IFR   IFR Intensif   IFR Très Intensif
Visi : 
Plafond : 
>= 8 km
>= 3000ft
5 à 8 km
1000 à 3000 ft
1500m à 5 km
500 à 1000 ft
800 à 1500m
200 à 500 ft
< 800m
< 200 ft
Symboles :   Orages  Brouillard  Fortes neiges  Fortes précipitations  Vent > 20 kt
SIGMETs :   Divers  Orages  Givrage  Turbulence  Onde Orograph.  Cendres Volcan.






- Altitude de l'aérodrome : 779 ft
- Code IATA : CMF


LFLB - Chambery / Aix-Les-Bains

DERNIER METAR :
  • 071630Z AUTO VRB02KT CAVOK 20/14 Q1021 NOSIG

METARs EXPIRÉS :
  • 071600Z AUTO 01002KT CAVOK 20/15 Q1021 NOSIG
  • 071530Z AUTO 36003KT CAVOK 21/15 Q1021 NOSIG
  • 071500Z AUTO 01003KT CAVOK 22/15 Q1021 NOSIG
  • 071430Z AUTO 36003KT CAVOK 22/15 Q1022 NOSIG
  • 071400Z AUTO 35004KT CAVOK 21/15 Q1022 NOSIG

TAF TAF LFLB
Valide du 07 à 15h jusqu'au 08 à 15h UTC


071400Z 0715/0815 34004KT 9999 BKN060
PROB40
TEMPO 0720/0724 -RA
PROB40
TEMPO 0800/0806 RA OVC015
TEMPO 0806/0813 6000 RA OVC012



MET'MAP, la Météo Aéronautique d'un coup d'oeil ! - Copyright ORBIFLY Décembre 2007 - Disclaimer

ORBIFLY MET'MAP TEAM :

Programmation & Développement : Alexandra Zaïnal
Sur une idée originale de : Baudouin d'Aumeries
Soutien technique & logistique : Manuel Goepfert
Assistance : Marc-Olivier Méhu




SOURCES & CREDITS :

   NOAA